Time;durP1;ratioP1;P1;durP2;ratioP2;P2;SDS_P1;SDS_P2;PMS_P1;PMS_P2;Temp;Humidity;BMP_temperature;BMP_pressure;BME280_temperature;BME280_humidity;BME280_pressure;Samples;Min_cycle;Max_cycle;Signal;HPM_P1;HPM_P2
2024/01/01 00:01:55;;;;;;;69.55;33.83;;;1.10;99.90;;;;;;5078609;28;20060;-82
2024/01/01 00:04:21;;;;;;;62.25;32.97;;;1.10;99.90;;;;;;5107171;28;20024;-82
2024/01/01 00:06:46;;;;;;;57.63;30.05;;;1.00;99.90;;;;;;5078672;28;20028;-82
2024/01/01 00:09:12;;;;;;;55.20;29.77;;;1.00;99.90;;;;;;5078393;28;20032;-82
2024/01/01 00:11:37;;;;;;;53.90;28.08;;;1.00;99.90;;;;;;5062086;28;20103;-82
2024/01/01 00:14:04;;;;;;;47.00;25.27;;;1.00;99.90;;;;;;5078532;28;20047;-81
2024/01/01 00:16:29;;;;;;;46.05;24.23;;;1.00;99.90;;;;;;5060930;28;20024;-81
2024/01/01 00:18:55;;;;;;;45.67;24.27;;;1.00;99.90;;;;;;5044950;28;20105;-81
2024/01/01 00:21:21;;;;;;;54.95;26.65;;;1.10;99.90;;;;;;5097460;28;20034;-81
2024/01/01 00:23:46;;;;;;;50.70;26.20;;;1.00;99.90;;;;;;5078105;28;20095;-81
2024/01/01 00:26:13;;;;;;;49.38;24.83;;;1.00;99.90;;;;;;5078531;28;20032;-81
2024/01/01 00:28:38;;;;;;;31.27;16.52;;;1.00;99.90;;;;;;5078234;28;20115;-81
2024/01/01 00:31:04;;;;;;;27.85;13.85;;;1.00;99.90;;;;;;5045249;28;20035;-81
2024/01/01 00:33:29;;;;;;;25.45;12.30;;;1.00;99.90;;;;;;5061331;28;20113;-81
2024/01/01 00:35:55;;;;;;;27.77;14.23;;;1.00;99.90;;;;;;5085010;28;20043;-81
2024/01/01 00:38:21;;;;;;;37.97;19.27;;;1.00;99.90;;;;;;5044729;28;20032;-81
2024/01/01 00:40:47;;;;;;;31.42;16.05;;;0.90;99.90;;;;;;5061491;28;20032;-81
2024/01/01 00:43:12;;;;;;;35.90;17.75;;;0.90;99.90;;;;;;5061868;28;20119;-81
2024/01/01 00:45:38;;;;;;;54.20;22.88;;;1.00;99.90;;;;;;5078843;28;20453;-81
2024/01/01 00:48:04;;;;;;;46.45;22.23;;;1.00;99.90;;;;;;5078633;28;20524;-81
2024/01/01 00:50:30;;;;;;;57.58;27.02;;;0.90;99.90;;;;;;5079465;28;20027;-81
2024/01/01 00:52:56;;;;;;;55.17;27.73;;;0.90;99.90;;;;;;5062215;28;20499;-81
2024/01/01 00:55:21;;;;;;;67.10;31.08;;;0.80;99.90;;;;;;5062032;28;20488;-81
2024/01/01 00:57:47;;;;;;;69.55;31.45;;;0.80;99.90;;;;;;5078994;28;20522;-81
2024/01/01 01:00:13;;;;;;;62.08;29.05;;;0.80;99.90;;;;;;5096495;28;20097;-81
2024/01/01 01:02:38;;;;;;;73.07;32.05;;;0.80;99.90;;;;;;5078292;28;20027;-81
2024/01/01 01:05:04;;;;;;;80.65;35.47;;;0.80;99.90;;;;;;5078104;28;20059;-81
2024/01/01 01:07:30;;;;;;;83.70;37.85;;;0.80;99.90;;;;;;5079449;28;20658;-81
2024/01/01 01:09:56;;;;;;;65.28;31.05;;;0.80;99.90;;;;;;5078112;28;20403;-81
2024/01/01 01:12:22;;;;;;;63.65;29.88;;;0.80;99.90;;;;;;5078187;28;20036;-81
2024/01/01 01:14:49;;;;;;;69.10;32.08;;;0.80;99.90;;;;;;5078241;28;20025;-81
2024/01/01 01:17:14;;;;;;;75.43;34.40;;;0.80;99.90;;;;;;5078262;28;20121;-81
2024/01/01 01:19:40;;;;;;;77.43;35.63;;;0.80;99.90;;;;;;5078255;28;20107;-81
2024/01/01 01:22:06;;;;;;;69.00;32.63;;;0.80;99.90;;;;;;5077974;28;20032;-81
2024/01/01 01:24:31;;;;;;;63.53;30.73;;;0.80;99.90;;;;;;5079415;28;20020;-81
2024/01/01 01:26:57;;;;;;;63.70;31.80;;;0.80;99.90;;;;;;5096706;28;20028;-81
2024/01/01 01:29:24;;;;;;;70.40;33.13;;;0.80;99.90;;;;;;5061578;28;20107;-81
2024/01/01 01:31:50;;;;;;;68.57;31.30;;;0.80;99.90;;;;;;5061513;28;20073;-82
2024/01/01 01:34:15;;;;;;;57.17;28.77;;;0.80;99.90;;;;;;5077900;28;20036;-82
2024/01/01 01:36:41;;;;;;;60.63;29.88;;;0.80;99.90;;;;;;5061604;28;20024;-82
2024/01/01 01:39:07;;;;;;;61.03;29.20;;;0.90;99.90;;;;;;5061496;28;20035;-82
2024/01/01 01:41:32;;;;;;;51.30;26.25;;;0.90;99.90;;;;;;5060082;28;20033;-82
2024/01/01 01:43:58;;;;;;;65.07;29.45;;;0.90;99.90;;;;;;5059736;28;20031;-82
2024/01/01 01:46:25;;;;;;;52.88;24.40;;;0.90;99.90;;;;;;5043411;28;20024;-82
2024/01/01 01:48:50;;;;;;;51.97;23.02;;;0.90;99.90;;;;;;5051188;28;20155;-82
2024/01/01 01:51:16;;;;;;;48.67;23.35;;;0.90;99.90;;;;;;5075661;28;20098;-82
2024/01/01 01:53:42;;;;;;;43.35;20.92;;;0.90;99.90;;;;;;5076982;28;20051;-82
2024/01/01 01:56:08;;;;;;;40.45;21.00;;;0.90;99.90;;;;;;5076911;28;20024;-82
2024/01/01 01:58:34;;;;;;;48.72;22.75;;;0.90;99.90;;;;;;5089884;28;20031;-82
2024/01/01 02:01:01;;;;;;;43.22;20.75;;;0.90;99.90;;;;;;5083181;28;20032;-82
2024/01/01 02:03:26;;;;;;;45.47;21.33;;;0.80;99.90;;;;;;5082173;28;20448;-83
2024/01/01 02:05:54;;;;;;;48.85;22.60;;;0.80;99.90;;;;;;5088141;28;20080;-83
2024/01/01 02:08:21;;;;;;;48.97;22.52;;;0.80;99.90;;;;;;5095571;28;20031;-82
2024/01/01 02:10:47;;;;;;;43.60;22.00;;;0.80;99.90;;;;;;5078693;28;20032;-82
2024/01/01 02:13:27;;;;;;;44.88;22.00;;;0.80;99.90;;;;;;5078544;28;20062;-82
2024/01/01 02:15:54;;;;;;;42.00;20.27;;;0.80;99.90;;;;;;5078706;28;20032;-82
2024/01/01 02:18:20;;;;;;;48.63;23.05;;;0.80;99.90;;;;;;5078199;28;20024;-82
2024/01/01 02:20:45;;;;;;;49.60;22.77;;;0.90;99.90;;;;;;5095891;28;20533;-82
2024/01/01 02:23:18;;;;;;;53.08;25.38;;;0.90;99.90;;;;;;5088410;28;20107;-82
2024/01/01 02:25:44;;;;;;;84.20;38.22;;;0.90;99.90;;;;;;5058426;28;20024;-82
2024/01/01 02:28:10;;;;;;;73.22;36.33;;;0.90;99.90;;;;;;5058416;28;20024;-83
2024/01/01 02:30:36;;;;;;;79.97;37.20;;;0.90;99.90;;;;;;5057956;28;20037;-82
2024/01/01 02:33:14;;;;;;;71.47;32.45;;;0.90;99.90;;;;;;5058299;28;20021;-83
2024/01/01 02:35:40;;;;;;;74.03;33.05;;;0.90;99.90;;;;;;5072815;28;20024;-83
2024/01/01 02:38:07;;;;;;;75.28;35.90;;;0.80;99.90;;;;;;5097722;28;20064;-82
2024/01/01 02:40:37;;;;;;;70.32;34.60;;;0.80;99.90;;;;;;5098124;28;20028;-82
2024/01/01 02:43:03;;;;;;;67.32;32.78;;;0.90;99.90;;;;;;5116639;28;20012;-83
2024/01/01 02:45:31;;;;;;;67.65;31.38;;;0.90;99.90;;;;;;5098400;28;20030;-83
2024/01/01 02:47:57;;;;;;;53.33;25.60;;;0.80;99.90;;;;;;5089427;28;20562;-83
2024/01/01 02:50:23;;;;;;;45.85;23.27;;;0.80;99.90;;;;;;5058322;28;20032;-83
2024/01/01 02:52:48;;;;;;;44.60;20.52;;;0.80;99.90;;;;;;5074442;28;20028;-83
2024/01/01 02:55:15;;;;;;;35.88;17.70;;;0.80;99.90;;;;;;5098565;28;20036;-83
2024/01/01 02:57:41;;;;;;;33.90;17.17;;;0.80;99.90;;;;;;5098430;28;20027;-83
2024/01/01 03:00:09;;;;;;;36.28;18.02;;;0.80;99.90;;;;;;5098470;28;20027;-83
2024/01/01 03:02:38;;;;;;;32.97;17.58;;;0.80;99.90;;;;;;5082568;28;20541;-83
2024/01/01 03:05:07;;;;;;;32.40;17.02;;;0.80;99.90;;;;;;5092787;28;20496;-83
2024/01/01 03:07:33;;;;;;;65.13;27.58;;;0.80;99.90;;;;;;5079078;28;20032;-83
2024/01/01 03:09:59;;;;;;;52.75;25.33;;;0.70;99.90;;;;;;5043188;28;20047;-83
2024/01/01 03:12:25;;;;;;;53.92;25.73;;;0.70;99.90;;;;;;5076995;28;20029;-83
2024/01/01 03:14:50;;;;;;;54.40;24.92;;;0.70;99.90;;;;;;5058233;28;20078;-83
2024/01/01 03:17:17;;;;;;;52.75;25.23;;;0.70;99.90;;;;;;5077357;28;20029;-83
2024/01/01 03:19:42;;;;;;;51.47;25.02;;;0.70;99.90;;;;;;5044521;28;20481;-83
2024/01/01 03:22:08;;;;;;;48.20;24.75;;;0.70;99.90;;;;;;5062424;28;20024;-83
2024/01/01 03:24:34;;;;;;;43.50;23.50;;;0.70;99.90;;;;;;5062505;28;20485;-83
2024/01/01 03:26:59;;;;;;;44.15;22.20;;;0.70;99.90;;;;;;5043901;28;20032;-83
2024/01/01 03:29:25;;;;;;;37.90;19.77;;;0.70;99.90;;;;;;5041663;28;20136;-83
2024/01/01 03:31:51;;;;;;;41.90;20.40;;;0.70;99.90;;;;;;5058633;28;20025;-83
2024/01/01 03:34:16;;;;;;;35.05;18.27;;;0.70;99.90;;;;;;5058400;28;20025;-83
2024/01/01 03:36:42;;;;;;;33.95;17.48;;;0.70;99.90;;;;;;5058576;28;20028;-83
2024/01/01 03:39:08;;;;;;;32.97;16.92;;;0.80;99.90;;;;;;5076675;28;20031;-83
2024/01/01 03:41:34;;;;;;;35.58;17.98;;;0.80;99.90;;;;;;5060814;28;20028;-84
2024/01/01 03:43:59;;;;;;;38.55;18.17;;;0.80;99.90;;;;;;5065281;28;20032;-83
2024/01/01 03:46:25;;;;;;;37.47;18.20;;;0.80;99.90;;;;;;5043765;28;20032;-83
2024/01/01 03:48:51;;;;;;;35.28;17.23;;;0.70;99.90;;;;;;5070986;28;20031;-83
2024/01/01 03:51:16;;;;;;;34.55;17.02;;;0.70;99.90;;;;;;5066014;28;20024;-83
2024/01/01 03:53:42;;;;;;;35.47;17.00;;;0.70;99.90;;;;;;5049337;28;20035;-83
2024/01/01 03:56:07;;;;;;;34.17;16.92;;;0.70;99.90;;;;;;5100683;28;20056;-83
2024/01/01 03:58:33;;;;;;;31.48;15.23;;;0.70;99.90;;;;;;5083271;28;20028;-83
2024/01/01 04:00:59;;;;;;;36.65;18.13;;;0.70;99.90;;;;;;5064958;28;20127;-83
2024/01/01 04:03:24;;;;;;;33.55;17.25;;;0.80;99.90;;;;;;5048638;28;20020;-83
2024/01/01 04:05:50;;;;;;;34.33;17.52;;;0.70;99.90;;;;;;5082088;28;20024;-83
2024/01/01 04:08:16;;;;;;;39.50;19.42;;;0.70;99.90;;;;;;5065114;28;20036;-83
2024/01/01 04:10:41;;;;;;;32.85;16.92;;;0.70;99.90;;;;;;5082319;28;20046;-83
2024/01/01 04:13:07;;;;;;;36.25;18.38;;;0.70;99.90;;;;;;5081965;28;20464;-83
2024/01/01 04:15:32;;;;;;;37.80;19.33;;;0.70;99.90;;;;;;5045946;28;20032;-83
2024/01/01 04:17:58;;;;;;;37.78;18.52;;;0.70;99.90;;;;;;5049883;28;20169;-83
2024/01/01 04:20:24;;;;;;;34.08;17.25;;;0.70;99.90;;;;;;5065382;28;20044;-83
2024/01/01 04:22:51;;;;;;;38.58;19.58;;;0.70;99.90;;;;;;5099365;28;20028;-83
2024/01/01 04:25:18;;;;;;;42.00;20.92;;;0.70;99.90;;;;;;5081570;28;20396;-83
2024/01/01 04:27:44;;;;;;;41.10;18.83;;;0.70;99.90;;;;;;5100156;28;20422;-83
2024/01/01 04:30:10;;;;;;;36.72;18.30;;;0.80;99.90;;;;;;5065550;28;20031;-83
2024/01/01 04:32:36;;;;;;;36.70;17.85;;;0.70;99.90;;;;;;5078742;28;20088;-83
2024/01/01 04:35:05;;;;;;;42.60;19.33;;;0.70;99.90;;;;;;5075532;28;20082;-83
2024/01/01 04:37:31;;;;;;;38.95;19.38;;;0.70;99.90;;;;;;5061754;28;20040;-87
2024/01/01 04:39:57;;;;;;;35.92;17.98;;;0.80;99.90;;;;;;5061484;28;20028;-83
2024/01/01 04:42:23;;;;;;;40.13;18.30;;;0.70;99.90;;;;;;5061816;28;20021;-83
2024/01/01 04:44:48;;;;;;;47.40;22.80;;;0.70;99.90;;;;;;5044915;28;20028;-83
2024/01/01 04:47:14;;;;;;;44.50;20.63;;;0.80;99.90;;;;;;5044036;28;20092;-83
2024/01/01 04:49:43;;;;;;;47.00;21.33;;;0.80;99.90;;;;;;5061792;28;20023;-83
2024/01/01 04:52:08;;;;;;;49.50;22.83;;;0.70;99.90;;;;;;5084191;28;20089;-83
2024/01/01 04:54:34;;;;;;;46.22;21.67;;;0.80;99.90;;;;;;5067980;28;20024;-83
2024/01/01 04:57:00;;;;;;;49.40;24.23;;;0.80;99.90;;;;;;5084821;28;20028;-83
2024/01/01 04:59:25;;;;;;;55.22;25.17;;;0.80;99.90;;;;;;5067567;28;20031;-83
2024/01/01 05:01:51;;;;;;;54.13;23.48;;;0.80;99.90;;;;;;5100318;28;20093;-83
2024/01/01 05:04:17;;;;;;;46.00;22.08;;;0.80;99.90;;;;;;5082018;28;20378;-84
2024/01/01 05:06:42;;;;;;;45.13;21.75;;;0.80;99.90;;;;;;5061657;28;20024;-83
2024/01/01 05:09:08;;;;;;;52.00;23.45;;;0.80;99.90;;;;;;5043805;28;20374;-83
2024/01/01 05:11:38;;;;;;;59.42;26.35;;;0.80;99.90;;;;;;5078591;28;20117;-83
2024/01/01 05:14:04;;;;;;;55.50;24.35;;;0.80;99.90;;;;;;5079944;28;20033;-83
2024/01/01 05:16:31;;;;;;;53.88;24.23;;;0.80;99.90;;;;;;5044442;28;20036;-83
2024/01/01 05:18:57;;;;;;;49.70;23.13;;;0.80;99.90;;;;;;5073864;28;20021;-83
2024/01/01 05:21:23;;;;;;;51.60;22.60;;;0.80;99.90;;;;;;5066698;28;20074;-84
2024/01/01 05:23:50;;;;;;;54.47;23.83;;;0.80;99.90;;;;;;5046359;28;20031;-84
2024/01/01 05:26:16;;;;;;;55.70;24.20;;;0.80;99.90;;;;;;5062537;28;20036;-84
2024/01/01 05:28:42;;;;;;;56.88;25.77;;;0.80;99.90;;;;;;5045749;28;20416;-84
2024/01/01 05:31:08;;;;;;;57.88;25.77;;;0.80;99.90;;;;;;5079224;28;20157;-84
2024/01/01 05:33:35;;;;;;;50.17;24.23;;;0.80;99.90;;;;;;5062728;28;20100;-84
2024/01/01 05:36:01;;;;;;;58.95;24.08;;;0.80;99.90;;;;;;5062219;28;20388;-85
2024/01/01 05:38:26;;;;;;;55.10;23.45;;;0.80;99.90;;;;;;5071430;28;20023;-85
2024/01/01 05:40:52;;;;;;;55.22;24.95;;;0.80;99.90;;;;;;5082938;28;20454;-85
2024/01/01 05:43:21;;;;;;;55.08;25.63;;;0.80;99.90;;;;;;5083088;28;20028;-84
2024/01/01 05:45:47;;;;;;;48.38;22.17;;;0.80;99.90;;;;;;5099834;28;20077;-84
2024/01/01 05:48:13;;;;;;;45.78;21.23;;;0.80;99.90;;;;;;5075149;28;20035;-84
2024/01/01 05:50:39;;;;;;;43.75;20.88;;;0.80;99.90;;;;;;5079155;28;20032;-85
2024/01/01 05:53:06;;;;;;;45.97;20.13;;;0.80;99.90;;;;;;5095311;28;20089;-85
2024/01/01 05:55:33;;;;;;;47.40;21.35;;;0.80;99.90;;;;;;5072859;28;20029;-85
2024/01/01 05:57:58;;;;;;;38.72;17.98;;;0.80;99.90;;;;;;5059975;28;20477;-85
2024/01/01 06:00:25;;;;;;;36.60;18.27;;;0.80;99.90;;;;;;5026526;28;20028;-84
2024/01/01 06:02:51;;;;;;;34.70;16.60;;;0.80;99.90;;;;;;5042972;28;20036;-84
2024/01/01 06:05:17;;;;;;;38.08;19.08;;;0.80;99.90;;;;;;5051550;28;20031;-85
2024/01/01 06:07:43;;;;;;;36.58;18.08;;;0.80;99.90;;;;;;5080012;28;20122;-84
2024/01/01 06:10:09;;;;;;;32.28;18.05;;;0.80;99.90;;;;;;5062394;28;20036;-84
2024/01/01 06:12:44;;;;;;;46.53;22.42;;;0.70;99.90;;;;;;5078105;28;20024;-86
2024/01/01 06:15:12;;;;;;;40.67;20.20;;;0.80;99.90;;;;;;5093792;28;20461;-86
2024/01/01 06:17:38;;;;;;;40.70;20.45;;;0.70;99.90;;;;;;5042896;28;20032;-86
2024/01/01 06:20:04;;;;;;;46.58;22.38;;;0.70;99.90;;;;;;5042360;28;20043;-84
2024/01/01 06:22:30;;;;;;;46.15;22.73;;;0.70;99.90;;;;;;5066161;28;20031;-84
2024/01/01 06:24:56;;;;;;;43.95;23.00;;;0.70;99.90;;;;;;5079994;28;20023;-86
2024/01/01 06:27:22;;;;;;;46.63;22.88;;;0.70;99.90;;;;;;5079054;28;20027;-86
2024/01/01 06:29:48;;;;;;;44.67;21.45;;;0.70;99.90;;;;;;5075830;28;20388;-86
2024/01/01 06:32:13;;;;;;;42.25;21.50;;;0.70;99.90;;;;;;5059739;28;20115;-85
2024/01/01 06:34:39;;;;;;;48.95;23.38;;;0.70;99.90;;;;;;5060606;28;20031;-86
2024/01/01 06:37:07;;;;;;;51.00;24.52;;;0.70;99.90;;;;;;5075948;28;20028;-86
2024/01/01 06:39:33;;;;;;;50.17;23.38;;;0.70;99.90;;;;;;5087613;28;20027;-86
2024/01/01 06:41:59;;;;;;;53.90;25.50;;;0.70;99.90;;;;;;5095812;28;20027;-86
2024/01/01 06:44:27;;;;;;;42.90;21.10;;;0.70;99.90;;;;;;5078934;28;20023;-85
2024/01/01 06:46:52;;;;;;;44.28;20.83;;;0.70;99.90;;;;;;5063063;28;20430;-85
2024/01/01 06:49:19;;;;;;;37.95;19.55;;;0.70;99.90;;;;;;5079399;28;20028;-85
2024/01/01 06:51:51;;;;;;;38.42;18.15;;;0.70;99.90;;;;;;5078921;28;20047;-85
2024/01/01 06:54:17;;;;;;;34.60;17.73;;;0.70;99.90;;;;;;5093563;28;20031;-85
2024/01/01 06:56:43;;;;;;;35.42;16.90;;;0.70;99.90;;;;;;5075299;28;20047;-85
2024/01/01 06:59:12;;;;;;;31.80;16.25;;;0.70;99.90;;;;;;5075429;28;20472;-86
2024/01/01 07:01:38;;;;;;;35.40;17.77;;;0.70;99.90;;;;;;5058576;28;20086;-86
2024/01/01 07:04:03;;;;;;;34.88;16.67;;;0.70;99.90;;;;;;5075289;28;20024;-86
2024/01/01 07:06:29;;;;;;;31.13;15.77;;;0.70;99.90;;;;;;5058556;28;20020;-86
2024/01/01 07:08:55;;;;;;;33.38;16.95;;;0.70;99.90;;;;;;5041739;28;20500;-86
2024/01/01 07:11:21;;;;;;;34.83;17.77;;;0.70;99.90;;;;;;5058670;28;20028;-85
2024/01/01 07:13:47;;;;;;;55.03;26.63;;;0.70;99.90;;;;;;5075875;28;20030;-84
2024/01/01 07:16:13;;;;;;;42.42;22.30;;;0.70;99.90;;;;;;5053015;28;20024;-85
2024/01/01 07:18:38;;;;;;;34.42;18.75;;;0.70;99.90;;;;;;5061999;28;20510;-85
2024/01/01 07:21:06;;;;;;;33.10;16.50;;;0.70;99.90;;;;;;5061836;28;20059;-85
2024/01/01 07:23:32;;;;;;;36.90;17.83;;;0.70;99.90;;;;;;5078902;28;20024;-85
2024/01/01 07:25:58;;;;;;;32.30;16.08;;;0.70;99.90;;;;;;5099104;28;20031;-85
2024/01/01 07:28:25;;;;;;;28.02;13.98;;;0.80;99.90;;;;;;5066466;28;20019;-85
2024/01/01 07:30:51;;;;;;;27.15;13.00;;;0.80;99.90;;;;;;5066773;28;20038;-85
2024/01/01 07:33:17;;;;;;;26.60;13.65;;;0.80;99.90;;;;;;5082910;28;20368;-85
2024/01/01 07:35:44;;;;;;;27.27;13.70;;;0.80;99.90;;;;;;5066481;28;20392;-85
2024/01/01 07:38:09;;;;;;;26.77;14.77;;;0.80;99.90;;;;;;5082658;28;20048;-85
2024/01/01 07:40:35;;;;;;;29.92;14.90;;;0.80;99.90;;;;;;5065935;28;20194;-85
2024/01/01 07:43:03;;;;;;;25.27;14.30;;;0.80;99.90;;;;;;5082601;28;20365;-85
2024/01/01 07:45:28;;;;;;;23.48;13.57;;;0.80;99.90;;;;;;5082723;28;20589;-85
2024/01/01 07:47:54;;;;;;;29.42;14.98;;;0.80;99.90;;;;;;5065720;28;20035;-85
2024/01/01 07:50:20;;;;;;;28.00;14.30;;;0.90;99.90;;;;;;5066903;28;20122;-85
2024/01/01 07:52:45;;;;;;;30.50;15.45;;;0.90;99.90;;;;;;5082244;28;20035;-85
2024/01/01 07:55:12;;;;;;;26.20;14.25;;;0.90;99.90;;;;;;5065951;28;20051;-85
2024/01/01 07:57:39;;;;;;;27.83;13.52;;;0.90;99.90;;;;;;5069775;28;20028;-85
2024/01/01 08:00:06;;;;;;;34.60;17.77;;;0.90;99.90;;;;;;5081964;28;20039;-85
2024/01/01 08:02:32;;;;;;;30.17;15.40;;;0.90;99.90;;;;;;5082297;28;20050;-85
2024/01/01 08:04:59;;;;;;;28.67;14.65;;;1.00;99.90;;;;;;5065864;28;20028;-85
2024/01/01 08:07:25;;;;;;;30.30;14.80;;;1.00;99.90;;;;;;5065848;28;20028;-85
2024/01/01 08:09:50;;;;;;;31.25;17.35;;;1.00;99.90;;;;;;5099110;28;20561;-85
2024/01/01 08:12:16;;;;;;;35.17;16.92;;;1.00;99.90;;;;;;5082971;28;20039;-85
2024/01/01 08:14:42;;;;;;;35.00;17.65;;;1.00;99.90;;;;;;5098637;28;20052;-86
2024/01/01 08:17:08;;;;;;;33.95;17.02;;;1.10;99.90;;;;;;5098228;28;20019;-85
2024/01/01 08:19:34;;;;;;;33.92;17.70;;;1.10;99.90;;;;;;5081440;28;20437;-85
2024/01/01 08:22:01;;;;;;;32.45;15.88;;;1.10;99.90;;;;;;5098206;28;20049;-85
2024/01/01 08:24:26;;;;;;;35.20;18.65;;;1.10;99.90;;;;;;5081320;28;20102;-85
2024/01/01 08:26:52;;;;;;;37.35;19.40;;;1.10;99.90;;;;;;5081292;28;20028;-85
2024/01/01 08:29:18;;;;;;;31.67;17.00;;;1.10;99.90;;;;;;5081384;28;20027;-85
2024/01/01 08:31:44;;;;;;;32.90;16.92;;;1.20;99.90;;;;;;5081404;28;20487;-85
2024/01/01 08:34:09;;;;;;;34.20;16.85;;;1.20;99.90;;;;;;5081724;28;20081;-85
2024/01/01 08:36:35;;;;;;;34.65;17.55;;;1.20;99.90;;;;;;5097589;28;20036;-85
2024/01/01 08:39:01;;;;;;;28.33;15.45;;;1.20;99.90;;;;;;5097815;28;20028;-85
2024/01/01 08:41:26;;;;;;;28.35;14.68;;;1.30;99.90;;;;;;5098256;28;20456;-86
2024/01/01 08:43:56;;;;;;;26.67;14.68;;;1.30;99.90;;;;;;5081147;28;20117;-85
2024/01/01 08:46:26;;;;;;;24.88;13.68;;;1.30;99.90;;;;;;5065437;28;20024;-85
2024/01/01 08:48:52;;;;;;;28.35;13.85;;;1.20;99.90;;;;;;5064341;28;20024;-85
2024/01/01 08:51:18;;;;;;;27.58;14.32;;;1.20;99.90;;;;;;5064218;28;20042;-86
2024/01/01 08:53:44;;;;;;;23.90;13.38;;;1.20;99.90;;;;;;5097561;28;20023;-86
2024/01/01 08:56:10;;;;;;;22.55;13.10;;;1.20;99.90;;;;;;5080696;28;20027;-85
2024/01/01 08:58:36;;;;;;;26.85;13.13;;;1.20;99.90;;;;;;5080665;28;20035;-85
2024/01/01 09:01:02;;;;;;;25.85;14.18;;;1.20;99.90;;;;;;5080454;28;20031;-86
2024/01/01 09:03:29;;;;;;;29.17;15.93;;;1.20;99.90;;;;;;5063853;28;20019;-86
2024/01/01 09:05:57;;;;;;;31.17;17.83;;;1.20;99.90;;;;;;5097293;28;20016;-86
2024/01/01 09:08:23;;;;;;;29.77;16.35;;;1.20;99.90;;;;;;5064510;28;20030;-86
2024/01/01 09:10:49;;;;;;;30.02;15.88;;;1.20;99.90;;;;;;5080312;28;20058;-85
2024/01/01 09:13:15;;;;;;;32.83;16.48;;;1.20;99.90;;;;;;5080500;28;20058;-86
2024/01/01 09:15:41;;;;;;;30.73;15.65;;;1.20;99.90;;;;;;5081735;28;20488;-86
2024/01/01 09:18:07;;;;;;;34.65;17.60;;;1.30;99.90;;;;;;5080154;28;20118;-86
2024/01/01 09:20:34;;;;;;;44.67;22.20;;;1.30;99.90;;;;;;5080216;28;20395;-86
2024/01/01 09:22:59;;;;;;;35.03;18.70;;;1.30;99.90;;;;;;5097223;28;20034;-86
2024/01/01 09:25:26;;;;;;;30.45;15.80;;;1.30;99.90;;;;;;5063673;28;20390;-86
2024/01/01 09:27:52;;;;;;;29.00;13.73;;;1.30;99.90;;;;;;5097691;28;20023;-86
2024/01/01 09:30:18;;;;;;;23.77;12.77;;;1.30;99.90;;;;;;5096981;28;20030;-86
2024/01/01 09:32:44;;;;;;;25.10;13.13;;;1.30;99.90;;;;;;5115176;28;20031;-85
2024/01/01 09:35:09;;;;;;;20.38;12.15;;;1.30;99.90;;;;;;5079824;28;20038;-86
2024/01/01 09:37:37;;;;;;;23.50;12.05;;;1.30;99.90;;;;;;5079848;28;20023;-85
2024/01/01 09:40:04;;;;;;;24.33;12.73;;;1.40;99.90;;;;;;5079605;28;20036;-86
2024/01/01 09:42:29;;;;;;;21.55;11.55;;;1.40;99.90;;;;;;5063265;28;20391;-85
2024/01/01 09:44:55;;;;;;;21.00;10.75;;;1.40;99.90;;;;;;5080300;28;20027;-86
2024/01/01 09:47:21;;;;;;;21.02;10.48;;;1.40;99.90;;;;;;5080407;28;20024;-86
2024/01/01 09:49:47;;;;;;;20.08;10.90;;;1.40;99.90;;;;;;5097663;28;20016;-86
2024/01/01 09:52:14;;;;;;;21.00;10.98;;;1.50;99.90;;;;;;5096670;28;20028;-86
2024/01/01 09:54:42;;;;;;;21.00;10.98;;;1.50;99.90;;;;;;5096494;28;20032;-86
2024/01/01 09:57:08;;;;;;;20.90;11.07;;;1.50;99.90;;;;;;5063408;28;20030;-86
2024/01/01 09:59:39;;;;;;;20.23;10.98;;;1.50;99.90;;;;;;5079291;28;20027;-86
2024/01/01 10:02:07;;;;;;;21.65;12.75;;;1.50;99.90;;;;;;5096308;28;20438;-86
2024/01/01 10:04:34;;;;;;;21.67;11.38;;;1.60;99.90;;;;;;5114445;28;20076;-86
2024/01/01 10:07:00;;;;;;;20.02;10.85;;;1.60;99.90;;;;;;5097196;28;20374;-86
2024/01/01 10:09:27;;;;;;;22.15;11.73;;;1.60;99.90;;;;;;5095893;28;20038;-86
2024/01/01 10:12:05;;;;;;;24.27;12.95;;;1.60;99.90;;;;;;5079417;28;20090;-86
2024/01/01 10:14:31;;;;;;;21.98;12.05;;;1.70;99.90;;;;;;5081036;28;20028;-86
2024/01/01 10:17:14;;;;;;;21.98;11.77;;;1.70;99.90;;;;;;5079176;28;20488;-86
2024/01/01 10:19:57;;;;;;;22.65;12.18;;;1.70;99.90;;;;;;5095950;28;20692;-86
2024/01/01 10:22:29;;;;;;;30.27;12.75;;;1.80;99.90;;;;;;5095906;28;20054;-86
2024/01/01 10:25:12;;;;;;;20.23;11.27;;;1.80;99.90;;;;;;5095951;28;20019;-86
2024/01/01 10:27:38;;;;;;;19.13;10.95;;;1.80;99.90;;;;;;5095829;28;20019;-86
2024/01/01 10:30:05;;;;;;;16.45;8.15;;;1.90;99.90;;;;;;5095794;28;20023;-86
2024/01/01 10:32:33;;;;;;;15.93;8.23;;;1.90;99.90;;;;;;5114046;28;20480;-86
2024/01/01 10:35:01;;;;;;;13.07;7.75;;;2.00;99.90;;;;;;5090054;28;20032;-86
2024/01/01 10:37:28;;;;;;;15.52;7.43;;;2.00;99.90;;;;;;5059297;28;20081;-86
2024/01/01 10:39:54;;;;;;;11.15;6.70;;;2.00;99.90;;;;;;5075195;28;20085;-86
2024/01/01 10:42:20;;;;;;;12.95;6.95;;;2.00;99.90;;;;;;5042552;28;20025;-86
2024/01/01 10:44:46;;;;;;;13.38;7.75;;;2.00;99.90;;;;;;5058845;28;20511;-86
2024/01/01 10:47:16;;;;;;;15.43;8.63;;;2.00;99.90;;;;;;5058666;28;20039;-86
2024/01/01 10:49:56;;;;;;;14.55;7.70;;;2.00;99.90;;;;;;5075457;28;20407;-86
2024/01/01 10:52:57;;;;;;;15.15;8.10;;;2.00;99.90;;;;;;5061373;28;20115;-86
2024/01/01 10:55:49;;;;;;;12.50;7.07;;;2.00;99.90;;;;;;5075356;28;20468;-86
2024/01/01 10:59:02;;;;;;;13.00;7.18;;;2.00;99.90;;;;;;5089525;28;20063;-86
2024/01/01 11:01:29;;;;;;;14.02;6.90;;;1.90;99.90;;;;;;5075454;28;20070;-86
2024/01/01 11:03:55;;;;;;;12.30;6.72;;;1.90;99.90;;;;;;5079438;28;20070;-86
2024/01/01 11:06:29;;;;;;;12.85;6.35;;;1.90;99.90;;;;;;5059424;28;20027;-86
2024/01/01 11:08:56;;;;;;;11.95;6.57;;;1.90;99.90;;;;;;5059704;28;20039;-86
2024/01/01 11:11:30;;;;;;;11.60;6.45;;;1.90;99.90;;;;;;5077060;28;20029;-86
2024/01/01 11:13:56;;;;;;;13.13;6.53;;;2.00;99.90;;;;;;5077097;28;20025;-86
2024/01/01 11:16:23;;;;;;;13.48;6.57;;;2.00;99.90;;;;;;5059861;28;20505;-86
2024/01/01 11:18:50;;;;;;;11.93;6.60;;;2.10;99.90;;;;;;5059724;28;20091;-86
2024/01/01 11:21:27;;;;;;;12.27;5.97;;;2.20;99.90;;;;;;5042604;28;20029;-86
2024/01/01 11:23:53;;;;;;;12.13;6.40;;;2.30;99.90;;;;;;5075761;28;20028;-86
2024/01/01 11:26:35;;;;;;;10.95;6.05;;;2.40;99.90;;;;;;5076840;28;20047;-86
2024/01/01 11:29:09;;;;;;;14.38;6.40;;;2.50;99.90;;;;;;5042251;28;20028;-86
2024/01/01 11:31:34;;;;;;;10.57;5.82;;;2.60;99.90;;;;;;5058887;28;20134;-86
2024/01/01 11:34:01;;;;;;;11.65;5.72;;;2.70;99.90;;;;;;5042911;28;20423;-86
2024/01/01 11:36:28;;;;;;;9.02;5.10;;;2.80;99.90;;;;;;5094574;28;20104;-86
2024/01/01 11:38:54;;;;;;;12.48;5.93;;;2.90;99.90;;;;;;5062455;28;20040;-86
2024/01/01 11:41:30;;;;;;;10.02;5.50;;;3.00;99.90;;;;;;5062225;28;20549;-87
2024/01/01 11:44:28;;;;;;;13.60;7.30;;;3.10;99.90;;;;;;5078538;28;20518;-87
2024/01/01 11:46:55;;;;;;;12.10;7.05;;;3.20;99.90;;;;;;5035954;28;20115;-87
2024/01/01 11:49:21;;;;;;;12.82;7.13;;;3.30;99.90;;;;;;5099076;28;20027;-88
2024/01/01 11:52:00;;;;;;;12.73;7.45;;;3.40;99.90;;;;;;5081704;28;20127;-87
2024/01/01 11:54:26;;;;;;;12.95;6.80;;;3.40;99.90;;;;;;5113726;28;20012;-87
2024/01/01 11:56:56;;;;;;;12.32;6.28;;;3.40;99.90;;;;;;5078719;28;20440;-88
2024/01/01 11:59:24;;;;;;;12.70;7.30;;;3.40;99.90;;;;;;5096780;28;20106;-87
2024/01/01 12:01:50;;;;;;;13.40;8.02;;;3.40;99.90;;;;;;5078930;28;20031;-87
2024/01/01 12:04:16;;;;;;;12.60;7.05;;;3.40;99.90;;;;;;5061917;28;20507;-86
2024/01/01 12:06:42;;;;;;;15.80;7.03;;;3.50;99.90;;;;;;5078110;28;20361;-86
2024/01/01 12:09:10;;;;;;;13.43;7.53;;;3.60;99.90;;;;;;5078068;28;20089;-87
2024/01/01 12:11:40;;;;;;;13.07;7.05;;;3.70;99.90;;;;;;5078482;28;20143;-86
2024/01/01 12:14:07;;;;;;;10.73;6.10;;;3.80;99.90;;;;;;5079152;28;20036;-86
2024/01/01 12:16:34;;;;;;;11.73;7.00;;;3.80;99.90;;;;;;5078257;28;20055;-87
2024/01/01 12:19:01;;;;;;;12.27;7.18;;;3.80;99.90;;;;;;5078074;28;20534;-87
2024/01/01 12:21:40;;;;;;;9.38;5.63;;;3.80;99.90;;;;;;5095774;28;20032;-86
2024/01/01 12:24:13;;;;;;;9.02;5.32;;;3.70;99.90;;;;;;5077931;28;20514;-87
2024/01/01 12:26:39;;;;;;;10.55;5.57;;;3.60;99.90;;;;;;5077936;28;20027;-87
2024/01/01 12:29:21;;;;;;;9.30;5.15;;;3.50;99.90;;;;;;5060913;28;20032;-86
2024/01/01 12:31:49;;;;;;;8.60;4.90;;;3.40;99.90;;;;;;5061398;28;20032;-87
2024/01/01 12:34:17;;;;;;;8.25;4.78;;;3.40;99.90;;;;;;5095782;28;20028;-87
2024/01/01 12:36:45;;;;;;;10.15;5.07;;;3.40;99.90;;;;;;5095540;28;20020;-87
2024/01/01 12:39:11;;;;;;;8.13;4.72;;;3.30;99.90;;;;;;5078951;28;20085;-88